createdAt,value
2019-01-28T00:00:21.648Z,3.66
2019-01-28T00:06:26.335Z,3.60
2019-01-28T00:12:30.883Z,3.59
2019-01-28T00:18:35.519Z,3.46
2019-01-28T00:24:41.963Z,3.30
2019-01-28T00:30:46.682Z,3.40
2019-01-28T00:36:52.049Z,3.17
2019-01-28T00:42:56.852Z,3.03
2019-01-28T00:49:01.640Z,3.15
2019-01-28T00:55:10.723Z,3.13
2019-01-28T01:01:15.589Z,3.02
2019-01-28T01:07:21.388Z,2.94
2019-01-28T01:13:25.947Z,2.98
2019-01-28T01:19:30.716Z,2.92
2019-01-28T01:25:35.461Z,2.91
2019-01-28T01:31:40.282Z,2.94
2019-01-28T01:37:44.897Z,3.10
2019-01-28T01:43:49.446Z,2.87
2019-01-28T01:49:53.997Z,2.97
2019-01-28T01:55:58.614Z,3.20
2019-01-28T02:02:03.276Z,3.07
2019-01-28T02:08:07.971Z,3.14
2019-01-28T02:14:13.487Z,3.32
2019-01-28T02:20:18.341Z,3.18
2019-01-28T02:26:22.985Z,3.35
2019-01-28T02:32:27.591Z,3.32
2019-01-28T02:38:32.907Z,3.19
2019-01-28T02:44:37.636Z,3.01
2019-01-28T02:50:42.493Z,2.99
2019-01-28T02:56:47.189Z,2.92
2019-01-28T03:02:51.845Z,2.77
2019-01-28T03:08:56.553Z,3.00
2019-01-28T03:15:01.084Z,3.04
2019-01-28T03:21:05.907Z,3.01
2019-01-28T03:27:10.602Z,3.21
2019-01-28T03:33:15.543Z,3.04
2019-01-28T03:39:20.325Z,3.26
2019-01-28T03:45:25.011Z,3.07
2019-01-28T03:51:29.626Z,3.17
2019-01-28T03:57:34.292Z,3.18
2019-01-28T04:03:38.907Z,3.15
2019-01-28T04:09:43.978Z,3.15
2019-01-28T04:15:48.644Z,3.06
2019-01-28T04:21:53.279Z,3.18
2019-01-28T04:27:57.829Z,3.12
2019-01-28T04:34:02.374Z,3.07
2019-01-28T04:40:13.979Z,2.96
2019-01-28T04:46:18.693Z,2.86
2019-01-28T04:52:23.610Z,2.74
2019-01-28T04:58:28.487Z,2.70
2019-01-28T05:04:33.392Z,2.59
2019-01-28T05:10:38.223Z,2.58
2019-01-28T05:16:43.383Z,2.66
2019-01-28T05:22:48.113Z,2.56
2019-01-28T05:28:52.730Z,2.55
2019-01-28T05:34:57.294Z,2.67
2019-01-28T05:41:01.930Z,2.89
2019-01-28T05:47:06.544Z,2.68
2019-01-28T05:53:12.585Z,2.65
2019-01-28T05:59:17.274Z,2.67
2019-01-28T06:05:22.090Z,2.77
2019-01-28T06:11:26.910Z,2.74
2019-01-28T06:17:38.669Z,3.01
2019-01-28T06:23:38.191Z,3.08
2019-01-28T06:29:43.497Z,3.02
2019-01-28T06:35:48.111Z,3.11
2019-01-28T06:41:52.817Z,3.33
2019-01-28T06:47:59.716Z,3.27
2019-01-28T06:54:04.331Z,3.28
2019-01-28T07:00:16.376Z,3.22
2019-01-28T07:06:21.142Z,3.22
2019-01-28T07:12:26.026Z,3.37
2019-01-28T07:18:30.837Z,3.42
2019-01-28T07:24:35.391Z,3.40
2019-01-28T07:30:41.053Z,3.43
2019-01-28T07:36:45.740Z,3.60
2019-01-28T07:42:50.346Z,3.54
2019-01-28T07:48:55.272Z,3.66
2019-01-28T07:54:59.874Z,3.40
2019-01-28T08:01:04.615Z,3.73
2019-01-28T08:07:10.144Z,3.65
2019-01-28T08:13:15.007Z,3.53
2019-01-28T08:19:19.929Z,3.90
2019-01-28T08:25:24.726Z,3.81
2019-01-28T08:31:29.486Z,3.65
2019-01-28T08:37:34.013Z,3.63
2019-01-28T08:43:38.599Z,3.97
2019-01-28T08:49:43.762Z,3.72
2019-01-28T08:55:48.593Z,3.74
2019-01-28T09:01:53.785Z,3.50
2019-01-28T09:07:58.671Z,3.37
2019-01-28T09:14:03.269Z,3.19
2019-01-28T09:20:23.899Z,3.17
2019-01-28T09:26:30.356Z,3.21
2019-01-28T09:32:35.152Z,3.37
2019-01-28T09:38:40.185Z,3.19
2019-01-28T09:44:45.003Z,3.20
2019-01-28T09:50:49.762Z,3.14
2019-01-28T09:56:54.737Z,3.05
2019-01-28T10:02:59.902Z,3.08
2019-01-28T10:09:10.157Z,3.20
2019-01-28T10:15:21.814Z,3.08
2019-01-28T10:21:26.462Z,3.20
2019-01-28T10:27:31.099Z,3.30
2019-01-28T10:33:35.741Z,3.25
2019-01-28T10:39:41.103Z,3.55
2019-01-28T10:45:47.664Z,3.55
2019-01-28T10:51:52.609Z,3.58
2019-01-28T10:57:57.890Z,3.48
2019-01-28T11:04:02.596Z,3.51
2019-01-28T11:10:11.933Z,3.46
2019-01-28T11:16:16.791Z,3.48
2019-01-28T11:22:22.055Z,3.52
2019-01-28T11:28:28.381Z,3.58
2019-01-28T11:34:33.070Z,3.75
2019-01-28T11:40:37.868Z,3.77
2019-01-28T11:46:43.028Z,3.95
2019-01-28T11:52:47.704Z,3.93
2019-01-28T11:58:52.256Z,4.15
2019-01-28T12:04:56.818Z,3.98
2019-01-28T12:11:01.425Z,4.11
2019-01-28T12:17:06.433Z,4.20
2019-01-28T12:23:11.253Z,3.97
2019-01-28T12:29:16.077Z,3.93
2019-01-28T12:35:20.898Z,3.74
2019-01-28T12:41:25.656Z,3.81
2019-01-28T12:47:30.365Z,4.07
2019-01-28T12:53:35.281Z,4.45
2019-01-28T12:59:40.233Z,4.35
2019-01-28T13:05:45.031Z,4.32
2019-01-28T13:11:49.561Z,4.43
2019-01-28T13:17:57.498Z,4.40
2019-01-28T13:24:02.061Z,4.22
2019-01-28T13:30:11.453Z,4.34
2019-01-28T13:36:16.312Z,4.16
2019-01-28T13:42:20.923Z,4.11
2019-01-28T13:48:25.480Z,3.97
2019-01-28T13:54:30.103Z,3.62
2019-01-28T14:00:35.175Z,3.71
2019-01-28T14:06:42.155Z,3.90
2019-01-28T14:12:46.844Z,3.79
2019-01-28T14:18:52.425Z,3.65
2019-01-28T14:24:57.034Z,3.60
2019-01-28T14:31:01.656Z,3.48
2019-01-28T14:37:06.510Z,3.23
2019-01-28T14:43:12.202Z,3.12
2019-01-28T14:49:17.190Z,2.94
2019-01-28T14:55:24.402Z,2.90
2019-01-28T15:01:29.285Z,2.82
2019-01-28T15:07:34.170Z,2.71
2019-01-28T15:13:38.858Z,2.64
2019-01-28T15:19:50.600Z,2.65
2019-01-28T15:25:50.240Z,2.80
2019-01-28T15:31:54.779Z,2.70
2019-01-28T15:37:59.389Z,2.64
2019-01-28T15:44:04.103Z,2.54
2019-01-28T15:50:13.480Z,2.37
2019-01-28T15:56:18.095Z,2.18
2019-01-28T16:02:22.728Z,1.96
2019-01-28T16:08:27.359Z,2.06
2019-01-28T16:14:32.074Z,2.18
2019-01-28T16:20:36.841Z,2.14
2019-01-28T16:26:41.498Z,2.26
2019-01-28T16:32:46.373Z,2.23
2019-01-28T16:45:01.401Z,2.20
2019-01-28T16:51:07.298Z,2.15
2019-01-28T16:57:12.268Z,2.26
2019-01-28T17:03:17.056Z,2.35
2019-01-28T17:09:21.599Z,2.36
2019-01-28T17:15:26.446Z,2.27
2019-01-28T17:21:31.001Z,2.41
2019-01-28T17:27:36.557Z,2.39
2019-01-28T17:33:41.575Z,2.49
2019-01-28T17:39:46.309Z,2.42
2019-01-28T17:45:51.311Z,2.31
2019-01-28T17:51:55.863Z,2.19
2019-01-28T17:58:00.427Z,2.13
2019-01-28T18:04:05.276Z,2.16
2019-01-28T18:10:14.091Z,2.02
2019-01-28T18:16:19.104Z,2.03
2019-01-28T18:22:24.078Z,1.93
2019-01-28T18:28:28.968Z,1.83
2019-01-28T18:34:33.718Z,1.68
2019-01-28T18:40:38.382Z,1.58
2019-01-28T18:46:43.425Z,1.46
2019-01-28T18:52:48.855Z,1.46
2019-01-28T18:58:53.493Z,1.29
2019-01-28T19:04:58.402Z,1.11
2019-01-28T19:11:04.750Z,1.11
2019-01-28T19:17:13.609Z,1.03
2019-01-28T19:23:18.254Z,1.00
2019-01-28T19:29:24.166Z,0.95
2019-01-28T19:35:28.966Z,0.97
2019-01-28T19:41:33.717Z,0.98
2019-01-28T19:47:38.300Z,0.87
2019-01-28T19:53:43.320Z,0.99
2019-01-28T19:59:48.830Z,0.88
2019-01-28T20:05:53.590Z,0.94
2019-01-28T20:11:58.478Z,1.05
2019-01-28T20:18:03.350Z,1.18
2019-01-28T20:24:08.042Z,1.11
2019-01-28T20:30:28.018Z,1.13
2019-01-28T20:36:32.659Z,1.07
2019-01-28T20:42:37.496Z,0.87
2019-01-28T20:48:42.408Z,1.03
2019-01-28T20:54:47.091Z,1.01
2019-01-28T21:00:51.707Z,0.87
2019-01-28T21:06:56.532Z,0.83
2019-01-28T21:13:01.208Z,0.84
2019-01-28T21:19:06.056Z,0.87
2019-01-28T21:25:20.900Z,0.76
2019-01-28T21:31:25.473Z,0.84
2019-01-28T21:37:30.658Z,0.74
2019-01-28T21:43:35.344Z,0.82
2019-01-28T21:49:40.475Z,0.92
2019-01-28T21:55:45.569Z,0.92
2019-01-28T22:01:53.559Z,0.95
2019-01-28T22:07:58.274Z,0.91
2019-01-28T22:14:03.274Z,1.08
2019-01-28T22:20:10.667Z,1.11
2019-01-28T22:26:16.455Z,1.03
2019-01-28T22:32:24.455Z,1.06
2019-01-28T22:38:29.069Z,1.04
2019-01-28T22:44:33.640Z,0.95
2019-01-28T22:50:38.459Z,0.89
2019-01-28T22:56:43.141Z,0.89
2019-01-28T23:02:47.823Z,0.80
2019-01-28T23:08:52.433Z,0.91
2019-01-28T23:14:57.067Z,0.97
2019-01-28T23:21:01.734Z,1.03
2019-01-28T23:27:06.427Z,0.90
2019-01-28T23:33:11.376Z,0.91
2019-01-28T23:39:16.166Z,0.82
2019-01-28T23:45:20.716Z,0.86
2019-01-28T23:51:25.386Z,1.01
2019-01-28T23:57:30.041Z,0.91
